createdAt,value
2022-08-07T00:00:25.134Z,102485.56
2022-08-07T00:02:53.595Z,102484.19
2022-08-07T00:05:20.843Z,102479.09
2022-08-07T00:07:58.332Z,102483.63
2022-08-07T00:10:30.632Z,102478.22
2022-08-07T00:13:01.250Z,102479.66
2022-08-07T00:15:37.982Z,102486.44
2022-08-07T00:18:19.899Z,102477.44
2022-08-07T00:20:50.810Z,102477.97
2022-08-07T00:23:18.394Z,102478.22
2022-08-07T00:25:52.469Z,102480.78
2022-08-07T00:28:33.254Z,102477.97
2022-08-07T00:31:05.972Z,102477.41
2022-08-07T00:33:34.027Z,102474.03
2022-08-07T00:36:00.923Z,102475.13
2022-08-07T00:38:31.821Z,102470.09
2022-08-07T00:41:00.662Z,102462.75
2022-08-07T00:43:58.926Z,102458.25
2022-08-07T00:46:14.537Z,102466.16
2022-08-07T00:48:42.180Z,102467.81
2022-08-07T00:51:09.918Z,102463.03
2022-08-07T00:53:38.424Z,102458.25
2022-08-07T00:56:07.356Z,102462.50
2022-08-07T00:58:46.893Z,102462.50
2022-08-07T01:01:19.377Z,102454.59
2022-08-07T01:03:57.020Z,102453.47
2022-08-07T01:06:27.369Z,102451.22
2022-08-07T01:08:55.650Z,102452.09
2022-08-07T01:12:10.025Z,102453.22
2022-08-07T01:14:17.127Z,102453.50
2022-08-07T01:16:48.132Z,102454.94
2022-08-07T01:19:19.119Z,102458.59
2022-08-07T01:21:47.225Z,102454.34
2022-08-07T01:24:14.617Z,102457.19
2022-08-07T01:26:51.962Z,102454.34
2022-08-07T01:29:19.992Z,102457.19
2022-08-07T01:31:48.127Z,102453.81
2022-08-07T01:34:18.772Z,102455.50
2022-08-07T01:36:52.588Z,102453.50
2022-08-07T01:39:25.178Z,102454.66
2022-08-07T01:42:37.031Z,102449.56
2022-08-07T01:44:53.659Z,102458.88
2022-08-07T01:48:19.666Z,102456.06
2022-08-07T01:50:09.164Z,102458.34
2022-08-07T01:52:49.389Z,102453.50
2022-08-07T01:55:24.330Z,102457.47
2022-08-07T01:58:05.676Z,102453.81
2022-08-07T02:00:45.437Z,102451.53
2022-08-07T02:03:26.279Z,102451.88
2022-08-07T02:05:59.590Z,102454.97
2022-08-07T02:08:28.861Z,102447.38
2022-08-07T02:10:59.421Z,102449.34
2022-08-07T02:13:57.334Z,102458.38
2022-08-07T02:16:17.045Z,102458.69
2022-08-07T02:18:47.976Z,102453.91
2022-08-07T02:21:24.368Z,102456.19
2022-08-07T02:23:52.922Z,102453.63
2022-08-07T02:26:32.344Z,102457.31
2022-08-07T02:29:02.726Z,102459.56
2022-08-07T02:31:33.973Z,102456.44
2022-08-07T02:34:10.902Z,102442.66
2022-08-07T02:36:39.760Z,102448.00
2022-08-07T02:39:17.310Z,102446.59
2022-08-07T02:41:56.779Z,102454.47
2022-08-07T02:44:27.469Z,102446.34
2022-08-07T02:47:03.697Z,102455.34
2022-08-07T02:49:57.614Z,102445.19
2022-08-07T02:52:31.213Z,102439.88
2022-08-07T02:55:01.627Z,102448.31
2022-08-07T02:57:31.586Z,102444.06
2022-08-07T03:00:04.969Z,102445.50
2022-08-07T03:02:32.969Z,102449.16
2022-08-07T03:05:05.022Z,102441.00
2022-08-07T03:07:58.837Z,102446.09
2022-08-07T03:10:23.452Z,102444.41
2022-08-07T03:12:51.923Z,102445.25
2022-08-07T03:15:30.132Z,102449.19
2022-08-07T03:18:07.124Z,102455.34
2022-08-07T03:20:36.365Z,102441.84
2022-08-07T03:23:03.623Z,102446.09
2022-08-07T03:25:40.177Z,102441.00
2022-08-07T03:28:38.510Z,102438.50
2022-08-07T03:31:24.663Z,102439.06
2022-08-07T03:34:03.087Z,102435.38
2022-08-07T03:36:31.141Z,102439.34
2022-08-07T03:39:05.490Z,102442.44
2022-08-07T03:41:42.348Z,102444.69
2022-08-07T03:44:15.254Z,102440.22
2022-08-07T03:47:11.472Z,102441.59
2022-08-07T03:49:31.131Z,102438.25
2022-08-07T03:52:01.148Z,102437.41
2022-08-07T03:54:36.304Z,102436.28
2022-08-07T03:58:34.531Z,102440.22
2022-08-07T04:00:04.639Z,102434.84
2022-08-07T04:02:33.246Z,102442.19
2022-08-07T04:05:00.147Z,102441.06
2022-08-07T04:07:41.678Z,102436.28
2022-08-07T04:10:15.307Z,102441.06
2022-08-07T04:12:42.781Z,102434.59
2022-08-07T04:15:10.690Z,102433.75
2022-08-07T04:18:31.303Z,102430.34
2022-08-07T04:20:25.843Z,102424.72
2022-08-07T04:23:02.000Z,102428.69
2022-08-07T04:25:38.993Z,102419.41
2022-08-07T04:28:13.491Z,102422.22
2022-08-07T04:30:55.345Z,102428.69
2022-08-07T04:33:25.282Z,102427.84
2022-08-07T04:35:53.847Z,102422.47
2022-08-07T04:38:22.017Z,102429.53
2022-08-07T04:40:51.595Z,102430.09
2022-08-07T04:44:09.570Z,102428.69
2022-08-07T04:46:25.785Z,102430.94
2022-08-07T04:48:59.235Z,102430.94
2022-08-07T04:51:35.683Z,102441.34
2022-08-07T04:54:19.366Z,102437.97
2022-08-07T04:58:14.296Z,102443.03
2022-08-07T05:00:11.022Z,102444.47
2022-08-07T05:02:43.390Z,102442.75
2022-08-07T05:05:53.231Z,102449.50
2022-08-07T05:08:15.215Z,102440.22
2022-08-07T05:11:02.564Z,102447.81
2022-08-07T05:14:55.032Z,102455.72
2022-08-07T05:16:24.335Z,102457.09
2022-08-07T05:18:56.514Z,102457.41
2022-08-07T05:22:00.169Z,102450.09
2022-08-07T05:24:17.336Z,102452.31
2022-08-07T05:26:46.238Z,102449.50
2022-08-07T05:29:15.748Z,102447.00
2022-08-07T05:31:51.241Z,102449.47
2022-08-07T05:34:20.140Z,102459.66
2022-08-07T05:36:54.568Z,102446.38
2022-08-07T05:40:13.675Z,102456.78
2022-08-07T05:42:12.265Z,102458.25
2022-08-07T05:44:41.563Z,102459.91
2022-08-07T05:47:18.225Z,102459.66
2022-08-07T05:49:48.208Z,102461.34
2022-08-07T05:52:17.215Z,102465.84
2022-08-07T05:54:55.640Z,102469.75
2022-08-07T05:57:26.591Z,102461.88
2022-08-07T05:59:58.351Z,102466.09
2022-08-07T06:02:28.893Z,102471.50
2022-08-07T06:04:57.981Z,102468.66
2022-08-07T06:08:05.368Z,102474.53
2022-08-07T06:10:15.487Z,102474.53
2022-08-07T06:12:42.362Z,102474.81
2022-08-07T06:15:09.946Z,102481.28
2022-08-07T06:17:53.935Z,102478.19
2022-08-07T06:20:49.454Z,102480.44
2022-08-07T06:23:46.320Z,102476.78
2022-08-07T06:25:58.952Z,102481.00
2022-08-07T06:28:27.395Z,102479.88
2022-08-07T06:30:55.630Z,102477.97
2022-08-07T06:33:22.933Z,102482.97
2022-08-07T06:36:06.871Z,102481.00
2022-08-07T06:38:36.576Z,102480.44
2022-08-07T06:41:09.812Z,102482.69
2022-08-07T06:43:46.214Z,102484.94
2022-08-07T06:46:13.671Z,102477.63
2022-08-07T06:48:42.135Z,102485.22
2022-08-07T06:51:33.262Z,102482.97
2022-08-07T06:55:29.492Z,102483.25
2022-08-07T06:56:51.113Z,102486.63
2022-08-07T07:00:12.817Z,102482.41
2022-08-07T07:02:12.083Z,102484.38
2022-08-07T07:04:43.511Z,102483.53
2022-08-07T07:08:00.331Z,102487.19
2022-08-07T07:10:08.407Z,102483.81
2022-08-07T07:12:50.372Z,102482.69
2022-08-07T07:15:23.803Z,102488.31
2022-08-07T07:18:03.031Z,102485.25
2022-08-07T07:20:35.753Z,102482.75
2022-08-07T07:24:08.992Z,102481.00
2022-08-07T07:26:32.488Z,102481.84
2022-08-07T07:28:48.265Z,102477.06
2022-08-07T07:31:44.330Z,102477.06
2022-08-07T07:34:13.606Z,102478.75
2022-08-07T07:36:48.046Z,102475.41
2022-08-07T07:39:22.722Z,102479.38
2022-08-07T07:42:13.140Z,102484.97
2022-08-07T07:44:42.202Z,102483.88
2022-08-07T07:47:23.063Z,102478.22
2022-08-07T07:50:32.772Z,102491.19
2022-08-07T07:52:42.054Z,102484.41
2022-08-07T07:55:11.016Z,102485.56
2022-08-07T07:57:51.770Z,102487.22
2022-08-07T08:00:29.583Z,102500.19
2022-08-07T08:03:06.039Z,102496.25
2022-08-07T08:05:50.875Z,102487.22
2022-08-07T08:08:34.815Z,102489.75
2022-08-07T08:11:04.286Z,102492.31
2022-08-07T08:13:33.420Z,102488.91
2022-08-07T08:16:08.847Z,102486.97
2022-08-07T08:18:39.400Z,102483.56
2022-08-07T08:21:07.459Z,102488.66
2022-08-07T08:23:53.374Z,102483.28
2022-08-07T08:26:40.061Z,102480.47
2022-08-07T08:29:08.283Z,102477.66
2022-08-07T08:32:16.729Z,102476.81
2022-08-07T08:34:27.287Z,102475.69
2022-08-07T08:37:00.339Z,102485.53
2022-08-07T08:39:39.339Z,102475.97
2022-08-07T08:42:47.914Z,102474.84
2022-08-07T08:45:41.957Z,102469.50
2022-08-07T08:48:38.775Z,102466.69
2022-08-07T08:52:00.872Z,102464.13
2022-08-07T08:54:17.679Z,102466.69
2022-08-07T08:56:47.999Z,102464.44
2022-08-07T08:59:24.061Z,102466.09
2022-08-07T09:02:00.796Z,102454.84
2022-08-07T09:04:53.608Z,102451.75
2022-08-07T09:07:45.900Z,102457.09
2022-08-07T09:10:13.514Z,102457.66
2022-08-07T09:12:53.043Z,102454.56
2022-08-07T09:16:22.309Z,102454.28
2022-08-07T09:18:22.595Z,102444.41
2022-08-07T09:21:05.561Z,102441.59
2022-08-07T09:24:33.364Z,102440.47
2022-08-07T09:27:09.123Z,102441.84
2022-08-07T09:30:06.115Z,102435.94
2022-08-07T09:32:43.955Z,102438.75
2022-08-07T09:36:01.383Z,102427.75
2022-08-07T09:38:12.342Z,102433.97
2022-08-07T09:40:51.148Z,102424.09
2022-08-07T09:44:03.455Z,102421.56
2022-08-07T09:47:42.499Z,102418.19
2022-08-07T09:50:02.654Z,102423.22
2022-08-07T09:52:34.153Z,102426.88
2022-08-07T09:55:05.586Z,102418.16
2022-08-07T09:57:56.194Z,102404.88
2022-08-07T10:00:29.994Z,102411.66
2022-08-07T10:03:08.512Z,102406.00
2022-08-07T10:06:04.373Z,102403.47
2022-08-07T10:11:59.790Z,102407.38
2022-08-07T10:14:22.678Z,102398.59
2022-08-07T10:17:14.479Z,102398.59
2022-08-07T10:19:43.419Z,102392.34
2022-08-07T10:22:17.990Z,102399.41
2022-08-07T10:24:57.601Z,102394.31
2022-08-07T10:27:45.953Z,102385.56
2022-08-07T10:30:16.701Z,102378.22
2022-08-07T10:33:02.161Z,102386.38
2022-08-07T10:35:55.507Z,102386.63
2022-08-07T10:38:42.038Z,102384.38
2022-08-07T10:41:51.773Z,102386.34
2022-08-07T10:44:33.792Z,102379.25
2022-08-07T10:47:18.640Z,102373.31
2022-08-07T10:50:11.929Z,102369.06
2022-08-07T10:52:52.058Z,102365.69
2022-08-07T10:55:39.345Z,102368.50
2022-08-07T10:58:15.651Z,102369.03
2022-08-07T11:00:50.265Z,102365.63
2022-08-07T11:03:23.943Z,102369.00
2022-08-07T11:06:23.177Z,102370.69
2022-08-07T11:09:04.097Z,102359.09
2022-08-07T11:11:51.801Z,102352.03
2022-08-07T11:14:46.299Z,102351.75
2022-08-07T11:17:13.742Z,102354.28
2022-08-07T11:19:49.966Z,102350.06
2022-08-07T11:22:32.368Z,102344.41
2022-08-07T11:25:24.124Z,102341.28
2022-08-07T11:28:06.191Z,102337.88
2022-08-07T11:30:43.946Z,102329.97
2022-08-07T11:33:53.580Z,102326.53
2022-08-07T11:36:40.811Z,102324.88
2022-08-07T11:39:25.979Z,102325.41
2022-08-07T11:42:29.799Z,102306.22
2022-08-07T11:44:57.520Z,102320.56
2022-08-07T11:47:55.925Z,102315.75
2022-08-07T11:50:57.222Z,102305.00
2022-08-07T11:54:00.710Z,102313.47
2022-08-07T11:56:52.266Z,102301.91
2022-08-07T12:00:07.800Z,102303.59
2022-08-07T12:02:20.942Z,102306.41
2022-08-07T12:05:02.381Z,102305.81
2022-08-07T12:07:38.753Z,102296.50
2022-08-07T12:10:10.465Z,102302.13
2022-08-07T12:12:55.361Z,102296.19
2022-08-07T12:15:46.714Z,102293.09
2022-08-07T12:18:29.714Z,102277.00
2022-08-07T12:21:00.139Z,102289.94
2022-08-07T12:24:06.153Z,102280.06
2022-08-07T12:26:40.683Z,102272.72
2022-08-07T12:29:14.049Z,102275.25
2022-08-07T12:31:53.067Z,102272.72
2022-08-07T12:34:29.451Z,102281.44
2022-08-07T12:36:57.175Z,102276.91
2022-08-07T12:39:43.590Z,102273.81
2022-08-07T12:42:15.349Z,102267.56
2022-08-07T12:44:45.434Z,102273.19
2022-08-07T12:47:31.118Z,102267.56
2022-08-07T12:50:38.552Z,102267.56
2022-08-07T12:53:18.235Z,102264.44
2022-08-07T12:56:02.614Z,102264.44
2022-08-07T12:58:37.220Z,102258.81
2022-08-07T13:01:32.448Z,102259.66
2022-08-07T13:04:32.661Z,102250.56
2022-08-07T13:07:07.452Z,102240.44
2022-08-07T13:10:19.347Z,102246.38
2022-08-07T13:12:38.102Z,102247.22
2022-08-07T13:15:29.801Z,102249.19
2022-08-07T13:18:26.767Z,102247.75
2022-08-07T13:21:14.073Z,102243.50
2022-08-07T13:24:11.458Z,102244.03
2022-08-07T13:26:49.360Z,102238.63
2022-08-07T13:29:34.786Z,102236.63
2022-08-07T13:32:31.245Z,102229.56
2022-08-07T13:35:08.937Z,102235.81
2022-08-07T13:37:59.018Z,102227.88
2022-08-07T13:40:35.611Z,102225.03
2022-08-07T13:43:11.714Z,102229.00
2022-08-07T13:46:11.756Z,102223.34
2022-08-07T13:48:33.847Z,102223.63
2022-08-07T13:51:20.423Z,102220.47
2022-08-07T13:54:00.489Z,102212.84
2022-08-07T13:56:36.016Z,102211.47
2022-08-07T13:59:15.894Z,102202.69
2022-08-07T14:01:59.242Z,102197.59
2022-08-07T14:04:35.610Z,102205.44
2022-08-07T14:07:09.645Z,102204.59
2022-08-07T14:10:00.973Z,102193.00
2022-08-07T14:12:54.162Z,102199.50
2022-08-07T14:15:35.918Z,102198.91
2022-08-07T14:18:23.942Z,102196.06
2022-08-07T14:20:54.669Z,102189.03
2022-08-07T14:23:58.639Z,102187.03
2022-08-07T14:26:29.807Z,102181.06
2022-08-07T14:29:04.303Z,102176.25
2022-08-07T14:31:43.073Z,102179.09
2022-08-07T14:34:23.598Z,102174.56
2022-08-07T14:36:55.998Z,102169.47
2022-08-07T14:40:16.128Z,102163.84
2022-08-07T14:42:20.664Z,102172.91
2022-08-07T14:44:53.017Z,102177.09
2022-08-07T14:47:20.801Z,102173.66
2022-08-07T14:52:36.726Z,102176.75
2022-08-07T14:55:05.161Z,102166.25
2022-08-07T14:57:58.126Z,102158.63
2022-08-07T15:00:30.310Z,102165.44
2022-08-07T15:02:59.148Z,102164.59
2022-08-07T15:05:26.940Z,102160.63
2022-08-07T15:07:58.497Z,102157.50
2022-08-07T15:13:25.456Z,102167.38
2022-08-07T15:16:03.751Z,102155.22
2022-08-07T15:18:43.162Z,102151.84
2022-08-07T15:21:44.139Z,102158.88
2022-08-07T15:26:57.551Z,102146.41
2022-08-07T15:30:10.912Z,102140.47
2022-08-07T15:35:15.235Z,102137.34
2022-08-07T15:38:04.420Z,102143.84
2022-08-07T15:40:36.214Z,102138.19
2022-08-07T15:43:06.042Z,102139.84
2022-08-07T15:45:58.224Z,102125.44
2022-08-07T15:48:32.281Z,102113.00
2022-08-07T15:51:09.240Z,102115.50
2022-08-07T15:53:53.099Z,102111.84
2022-08-07T15:56:24.283Z,102116.34
2022-08-07T15:58:58.076Z,102111.53
2022-08-07T16:01:38.536Z,102114.34
2022-08-07T16:04:14.258Z,102103.91
2022-08-07T16:06:50.230Z,102114.91
2022-08-07T16:09:22.439Z,102106.44
2022-08-07T16:12:12.229Z,102106.44
2022-08-07T16:14:42.115Z,102106.09
2022-08-07T16:17:16.306Z,102107.78
2022-08-07T16:20:01.754Z,102101.84
2022-08-07T16:22:33.817Z,102097.88
2022-08-07T16:25:48.830Z,102100.69
2022-08-07T16:30:05.550Z,102106.34
2022-08-07T16:31:50.841Z,102104.66
2022-08-07T16:34:26.487Z,102105.81
2022-08-07T16:37:02.293Z,102096.47
2022-08-07T16:39:49.676Z,102101.28
2022-08-07T16:42:36.520Z,102102.47
2022-08-07T16:48:13.438Z,102097.88
2022-08-07T16:50:48.442Z,102099.00
2022-08-07T16:54:02.715Z,102090.22
2022-08-07T16:56:14.134Z,102095.03
2022-08-07T16:59:11.095Z,102092.44
2022-08-07T17:01:41.435Z,102101.22
2022-08-07T17:04:24.545Z,102100.69
2022-08-07T17:07:02.734Z,102099.84
2022-08-07T17:10:06.346Z,102096.47
2022-08-07T17:12:47.474Z,102099.31
2022-08-07T17:15:15.580Z,102107.78
2022-08-07T17:17:46.299Z,102105.50
2022-08-07T17:20:20.820Z,102108.31
2022-08-07T17:23:08.789Z,102110.59
2022-08-07T17:25:51.760Z,102107.78
2022-08-07T17:28:24.591Z,102111.22
2022-08-07T17:31:17.341Z,102104.44
2022-08-07T17:34:32.874Z,102106.09
2022-08-07T17:36:58.022Z,102100.44
2022-08-07T17:39:57.647Z,102096.81
2022-08-07T17:42:58.170Z,102097.94
2022-08-07T17:45:35.054Z,102100.78
2022-08-07T17:48:04.822Z,102096.56
2022-08-07T17:50:50.235Z,102099.38
2022-08-07T17:54:00.108Z,102090.06
2022-08-07T17:56:25.957Z,102088.91
2022-08-07T17:58:56.919Z,102088.91
2022-08-07T18:01:36.715Z,102095.72
2022-08-07T18:04:21.992Z,102093.72
2022-08-07T18:07:20.262Z,102099.38
2022-08-07T18:10:07.121Z,102095.19
2022-08-07T18:13:09.834Z,102095.50
2022-08-07T18:15:54.812Z,102105.44
2022-08-07T18:18:46.422Z,102097.81
2022-08-07T18:21:53.379Z,102096.97
2022-08-07T18:24:33.117Z,102098.09
2022-08-07T18:27:06.650Z,102091.91
2022-08-07T18:30:07.392Z,102099.56
2022-08-07T18:32:23.002Z,102100.72
2022-08-07T18:35:08.431Z,102105.50
2022-08-07T18:38:58.567Z,102104.97
2022-08-07T18:40:42.676Z,102104.66
2022-08-07T18:43:42.532Z,102108.97
2022-08-07T18:46:32.733Z,102109.78
2022-08-07T18:50:31.385Z,102114.59
2022-08-07T18:52:51.650Z,102113.75
2022-08-07T18:55:40.778Z,102121.41
2022-08-07T18:58:10.739Z,102116.88
2022-08-07T19:00:53.771Z,102119.16
2022-08-07T19:03:38.087Z,102120.34
2022-08-07T19:06:09.403Z,102123.16
2022-08-07T19:08:46.636Z,102128.81
2022-08-07T19:11:36.456Z,102126.81
2022-08-07T19:14:11.648Z,102126.50
2022-08-07T19:17:06.466Z,102137.28
2022-08-07T19:19:53.785Z,102138.13
2022-08-07T19:22:34.242Z,102141.75
2022-08-07T19:25:05.636Z,102144.56
2022-08-07T19:29:03.546Z,102146.88
2022-08-07T19:31:04.153Z,102142.94
2022-08-07T19:33:16.375Z,102142.94
2022-08-07T19:35:52.259Z,102140.09
2022-08-07T19:38:20.941Z,102144.06
2022-08-07T19:40:51.469Z,102147.72
2022-08-07T19:43:43.980Z,102145.19
2022-08-07T19:46:12.202Z,102155.34
2022-08-07T19:48:53.915Z,102155.66
2022-08-07T19:51:53.102Z,102165.81
2022-08-07T19:54:30.030Z,102168.63
2022-08-07T19:58:02.036Z,102164.13
2022-08-07T19:59:53.777Z,102166.94
2022-08-07T20:02:29.447Z,102176.25
2022-08-07T20:04:57.197Z,102170.09
2022-08-07T20:07:47.674Z,102170.09
2022-08-07T20:10:35.474Z,102169.50
2022-08-07T20:13:22.475Z,102169.50
2022-08-07T20:15:51.295Z,102164.16
2022-08-07T20:18:21.789Z,102163.88
2022-08-07T20:21:02.918Z,102163.88
2022-08-07T20:23:43.385Z,102165.84
2022-08-07T20:26:29.563Z,102165.84
2022-08-07T20:29:01.825Z,102175.47
2022-08-07T20:31:43.194Z,102164.16
2022-08-07T20:34:14.759Z,102170.66
2022-08-07T20:36:51.704Z,102173.47
2022-08-07T20:40:03.004Z,102170.66
2022-08-07T20:42:14.402Z,102174.63
2022-08-07T20:44:45.391Z,102183.94
2022-08-07T20:47:18.472Z,102183.94
2022-08-07T20:49:59.716Z,102185.91
2022-08-07T20:52:50.794Z,102181.44
2022-08-07T20:55:20.557Z,102186.22
2022-08-07T20:58:02.598Z,102190.75
2022-08-07T21:00:47.245Z,102189.91
2022-08-07T21:03:17.456Z,102194.72
2022-08-07T21:05:54.584Z,102191.88
2022-08-07T21:08:37.100Z,102198.66
2022-08-07T21:11:10.831Z,102194.72
2022-08-07T21:13:57.400Z,102200.66
2022-08-07T21:16:30.612Z,102199.50
2022-08-07T21:18:58.441Z,102206.00
2022-08-07T21:21:49.171Z,102203.47
2022-08-07T21:24:47.939Z,102204.31
2022-08-07T21:27:24.635Z,102204.31
2022-08-07T21:29:58.156Z,102201.50
2022-08-07T21:32:49.411Z,102209.13
2022-08-07T21:36:03.900Z,102202.63
2022-08-07T21:38:30.216Z,102198.94
2022-08-07T21:41:11.068Z,102198.66
2022-08-07T21:43:56.056Z,102201.78
2022-08-07T21:46:33.031Z,102215.91
2022-08-07T21:49:15.036Z,102208.28
2022-08-07T21:51:50.959Z,102211.09
2022-08-07T21:54:27.381Z,102203.75
2022-08-07T21:57:03.526Z,102215.91
2022-08-07T22:00:09.373Z,102207.13
2022-08-07T22:03:07.875Z,102218.72
2022-08-07T22:05:50.180Z,102222.72
2022-08-07T22:08:21.062Z,102230.00
2022-08-07T22:10:51.660Z,102231.19
2022-08-07T22:13:24.391Z,102232.84
2022-08-07T22:16:43.461Z,102233.69
2022-08-07T22:19:23.802Z,102242.47
2022-08-07T22:22:17.683Z,102247.28
2022-08-07T22:24:52.671Z,102254.91
2022-08-07T22:27:33.890Z,102264.22
2022-08-07T22:30:13.134Z,102258.88
2022-08-07T22:32:44.813Z,102256.88
2022-08-07T22:35:12.606Z,102256.03
2022-08-07T22:38:03.694Z,102256.03
2022-08-07T22:40:50.689Z,102262.53
2022-08-07T22:43:36.022Z,102260.56
2022-08-07T22:46:21.938Z,102266.19
2022-08-07T22:49:09.657Z,102258.03
2022-08-07T22:51:42.145Z,102267.34
2022-08-07T22:54:27.357Z,102276.66
2022-08-07T22:56:56.787Z,102270.44
2022-08-07T22:59:26.326Z,102280.09
2022-08-07T23:01:52.942Z,102279.25
2022-08-07T23:04:29.908Z,102284.56
2022-08-07T23:07:03.380Z,102286.03
2022-08-07T23:10:37.820Z,102282.59
2022-08-07T23:12:50.596Z,102286.56
2022-08-07T23:16:07.350Z,102285.75
2022-08-07T23:18:18.546Z,102286.56
2022-08-07T23:20:53.485Z,102297.84
2022-08-07T23:24:05.709Z,102291.69
2022-08-07T23:26:13.753Z,102288.84
2022-08-07T23:29:02.945Z,102283.81
2022-08-07T23:34:21.200Z,102291.13
2022-08-07T23:34:52.214Z,102291.97
2022-08-07T23:37:37.788Z,102287.44
2022-08-07T23:40:30.775Z,102288.28
2022-08-07T23:43:16.795Z,102295.09
2022-08-07T23:46:03.563Z,102281.81
2022-08-07T23:48:56.175Z,102286.94
2022-08-07T23:53:17.462Z,102283.25
2022-08-07T23:54:44.212Z,102277.59
2022-08-07T23:57:18.540Z,102278.47
